sensor_id;sensor_type;location;lat;lon;timestamp;P1;durP1;ratioP1;P2;durP2;ratioP2
2650;SDS011;1335;48.180;16.342;2022-10-16T00:01:37;98.70;;;68.70;;
2650;SDS011;1335;48.180;16.342;2022-10-16T00:04:05;96.00;;;68.23;;
2650;SDS011;1335;48.180;16.342;2022-10-16T00:06:33;127.37;;;70.10;;
2650;SDS011;1335;48.180;16.342;2022-10-16T00:09:00;127.77;;;71.77;;
2650;SDS011;1335;48.180;16.342;2022-10-16T00:11:28;141.03;;;73.40;;
2650;SDS011;1335;48.180;16.342;2022-10-16T00:14:03;118.67;;;72.30;;
2650;SDS011;1335;48.180;16.342;2022-10-16T00:16:32;154.77;;;70.10;;
2650;SDS011;1335;48.180;16.342;2022-10-16T00:19:03;117.70;;;71.37;;
2650;SDS011;1335;48.180;16.342;2022-10-16T00:21:32;123.23;;;70.37;;
2650;SDS011;1335;48.180;16.342;2022-10-16T00:24:01;157.50;;;68.00;;
2650;SDS011;1335;48.180;16.342;2022-10-16T00:26:30;174.47;;;69.30;;
2650;SDS011;1335;48.180;16.342;2022-10-16T00:29:02;166.83;;;70.87;;
2650;SDS011;1335;48.180;16.342;2022-10-16T00:31:31;206.93;;;73.17;;
2650;SDS011;1335;48.180;16.342;2022-10-16T00:33:59;235.07;;;72.60;;
2650;SDS011;1335;48.180;16.342;2022-10-16T00:36:28;344.97;;;78.33;;
2650;SDS011;1335;48.180;16.342;2022-10-16T00:38:57;115.33;;;63.57;;
2650;SDS011;1335;48.180;16.342;2022-10-16T00:41:27;121.00;;;63.17;;
2650;SDS011;1335;48.180;16.342;2022-10-16T00:43:56;150.87;;;62.40;;
2650;SDS011;1335;48.180;16.342;2022-10-16T00:46:25;137.00;;;61.93;;
2650;SDS011;1335;48.180;16.342;2022-10-16T00:48:57;331.93;;;70.20;;
2650;SDS011;1335;48.180;16.342;2022-10-16T00:51:30;121.00;;;59.73;;
2650;SDS011;1335;48.180;16.342;2022-10-16T00:54:01;122.30;;;60.27;;
2650;SDS011;1335;48.180;16.342;2022-10-16T00:56:31;116.07;;;60.53;;
2650;SDS011;1335;48.180;16.342;2022-10-16T00:58:59;108.40;;;60.40;;
2650;SDS011;1335;48.180;16.342;2022-10-16T01:01:30;122.17;;;57.70;;
2650;SDS011;1335;48.180;16.342;2022-10-16T01:03:57;121.73;;;63.17;;
2650;SDS011;1335;48.180;16.342;2022-10-16T01:06:25;94.43;;;60.30;;
2650;SDS011;1335;48.180;16.342;2022-10-16T01:09:06;94.27;;;59.67;;
2650;SDS011;1335;48.180;16.342;2022-10-16T01:11:41;90.27;;;59.67;;
2650;SDS011;1335;48.180;16.342;2022-10-16T01:14:14;93.33;;;59.17;;
2650;SDS011;1335;48.180;16.342;2022-10-16T01:16:48;95.63;;;59.77;;
2650;SDS011;1335;48.180;16.342;2022-10-16T01:19:25;84.33;;;57.07;;
2650;SDS011;1335;48.180;16.342;2022-10-16T01:22:04;78.50;;;58.40;;
2650;SDS011;1335;48.180;16.342;2022-10-16T01:24:37;82.33;;;57.13;;
2650;SDS011;1335;48.180;16.342;2022-10-16T01:27:08;87.03;;;59.80;;
2650;SDS011;1335;48.180;16.342;2022-10-16T01:29:39;83.93;;;59.60;;
2650;SDS011;1335;48.180;16.342;2022-10-16T01:32:16;70.97;;;54.60;;
2650;SDS011;1335;48.180;16.342;2022-10-16T01:34:49;74.70;;;58.47;;
2650;SDS011;1335;48.180;16.342;2022-10-16T01:37:22;75.20;;;56.10;;
2650;SDS011;1335;48.180;16.342;2022-10-16T01:39:55;78.63;;;60.97;;
2650;SDS011;1335;48.180;16.342;2022-10-16T01:42:28;83.67;;;61.17;;
2650;SDS011;1335;48.180;16.342;2022-10-16T01:45:01;71.60;;;58.40;;
2650;SDS011;1335;48.180;16.342;2022-10-16T01:47:31;83.00;;;60.07;;
2650;SDS011;1335;48.180;16.342;2022-10-16T01:49:59;78.43;;;58.83;;
2650;SDS011;1335;48.180;16.342;2022-10-16T01:52:30;73.00;;;57.70;;
2650;SDS011;1335;48.180;16.342;2022-10-16T01:55:00;69.60;;;54.53;;
2650;SDS011;1335;48.180;16.342;2022-10-16T01:57:31;90.27;;;57.30;;
2650;SDS011;1335;48.180;16.342;2022-10-16T02:00:03;101.77;;;54.47;;
2650;SDS011;1335;48.180;16.342;2022-10-16T02:02:33;138.90;;;59.37;;
2650;SDS011;1335;48.180;16.342;2022-10-16T02:05:02;130.40;;;58.17;;
2650;SDS011;1335;48.180;16.342;2022-10-16T02:07:35;119.80;;;57.10;;
2650;SDS011;1335;48.180;16.342;2022-10-16T02:10:02;88.33;;;57.07;;
2650;SDS011;1335;48.180;16.342;2022-10-16T02:12:32;130.97;;;62.63;;
2650;SDS011;1335;48.180;16.342;2022-10-16T02:15:01;182.90;;;60.57;;
2650;SDS011;1335;48.180;16.342;2022-10-16T02:17:29;160.00;;;58.57;;
2650;SDS011;1335;48.180;16.342;2022-10-16T02:19:56;157.27;;;58.40;;
2650;SDS011;1335;48.180;16.342;2022-10-16T02:22:26;166.93;;;59.60;;
2650;SDS011;1335;48.180;16.342;2022-10-16T02:24:56;150.10;;;57.63;;
2650;SDS011;1335;48.180;16.342;2022-10-16T02:27:26;132.37;;;57.83;;
2650;SDS011;1335;48.180;16.342;2022-10-16T02:30:02;132.57;;;57.53;;
2650;SDS011;1335;48.180;16.342;2022-10-16T02:32:33;89.23;;;56.20;;
2650;SDS011;1335;48.180;16.342;2022-10-16T02:35:03;92.40;;;53.50;;
2650;SDS011;1335;48.180;16.342;2022-10-16T02:37:31;74.90;;;55.07;;
2650;SDS011;1335;48.180;16.342;2022-10-16T02:39:59;66.73;;;52.93;;
2650;SDS011;1335;48.180;16.342;2022-10-16T02:42:28;75.80;;;53.33;;
2650;SDS011;1335;48.180;16.342;2022-10-16T02:44:56;65.17;;;52.70;;
2650;SDS011;1335;48.180;16.342;2022-10-16T02:47:24;61.70;;;52.10;;
2650;SDS011;1335;48.180;16.342;2022-10-16T02:49:51;81.57;;;52.97;;
2650;SDS011;1335;48.180;16.342;2022-10-16T02:52:18;68.90;;;50.53;;
2650;SDS011;1335;48.180;16.342;2022-10-16T02:54:45;88.73;;;51.60;;
2650;SDS011;1335;48.180;16.342;2022-10-16T02:57:12;60.43;;;48.57;;
2650;SDS011;1335;48.180;16.342;2022-10-16T02:59:39;57.87;;;48.10;;
2650;SDS011;1335;48.180;16.342;2022-10-16T03:02:07;56.70;;;46.40;;
2650;SDS011;1335;48.180;16.342;2022-10-16T03:04:35;53.80;;;47.10;;
2650;SDS011;1335;48.180;16.342;2022-10-16T03:07:02;57.73;;;45.27;;
2650;SDS011;1335;48.180;16.342;2022-10-16T03:09:30;62.13;;;46.30;;
2650;SDS011;1335;48.180;16.342;2022-10-16T03:11:57;54.00;;;46.20;;
2650;SDS011;1335;48.180;16.342;2022-10-16T03:14:24;50.60;;;42.00;;
2650;SDS011;1335;48.180;16.342;2022-10-16T03:16:51;46.57;;;40.37;;
2650;SDS011;1335;48.180;16.342;2022-10-16T03:19:18;45.50;;;40.70;;
2650;SDS011;1335;48.180;16.342;2022-10-16T03:21:47;46.90;;;39.93;;
2650;SDS011;1335;48.180;16.342;2022-10-16T03:24:14;46.73;;;40.13;;
2650;SDS011;1335;48.180;16.342;2022-10-16T03:26:41;47.40;;;40.60;;
2650;SDS011;1335;48.180;16.342;2022-10-16T03:29:08;46.53;;;40.63;;
2650;SDS011;1335;48.180;16.342;2022-10-16T03:31:36;54.43;;;43.70;;
2650;SDS011;1335;48.180;16.342;2022-10-16T03:34:03;47.07;;;41.97;;
2650;SDS011;1335;48.180;16.342;2022-10-16T03:36:30;53.83;;;41.73;;
2650;SDS011;1335;48.180;16.342;2022-10-16T03:38:58;52.27;;;44.17;;
2650;SDS011;1335;48.180;16.342;2022-10-16T03:41:26;49.33;;;42.57;;
2650;SDS011;1335;48.180;16.342;2022-10-16T03:43:53;47.90;;;39.50;;
2650;SDS011;1335;48.180;16.342;2022-10-16T03:46:20;51.03;;;42.10;;
2650;SDS011;1335;48.180;16.342;2022-10-16T03:48:47;51.27;;;42.07;;
2650;SDS011;1335;48.180;16.342;2022-10-16T03:51:15;53.17;;;42.10;;
2650;SDS011;1335;48.180;16.342;2022-10-16T03:53:42;45.47;;;39.97;;
2650;SDS011;1335;48.180;16.342;2022-10-16T03:56:10;48.07;;;40.17;;
2650;SDS011;1335;48.180;16.342;2022-10-16T03:58:37;50.80;;;41.63;;
2650;SDS011;1335;48.180;16.342;2022-10-16T04:01:05;52.40;;;41.67;;
2650;SDS011;1335;48.180;16.342;2022-10-16T04:03:32;50.53;;;40.97;;
2650;SDS011;1335;48.180;16.342;2022-10-16T04:05:59;62.60;;;43.93;;
2650;SDS011;1335;48.180;16.342;2022-10-16T04:08:26;77.27;;;46.43;;
2650;SDS011;1335;48.180;16.342;2022-10-16T04:10:54;63.63;;;50.20;;
2650;SDS011;1335;48.180;16.342;2022-10-16T04:13:22;71.60;;;44.27;;
2650;SDS011;1335;48.180;16.342;2022-10-16T04:15:49;59.10;;;46.07;;
2650;SDS011;1335;48.180;16.342;2022-10-16T04:18:16;78.60;;;46.27;;
2650;SDS011;1335;48.180;16.342;2022-10-16T04:20:43;107.57;;;45.10;;
2650;SDS011;1335;48.180;16.342;2022-10-16T04:23:11;92.87;;;45.23;;
2650;SDS011;1335;48.180;16.342;2022-10-16T04:25:38;108.27;;;48.90;;
2650;SDS011;1335;48.180;16.342;2022-10-16T04:28:05;89.00;;;44.20;;
2650;SDS011;1335;48.180;16.342;2022-10-16T04:30:33;186.60;;;44.13;;
2650;SDS011;1335;48.180;16.342;2022-10-16T04:33:00;53.37;;;38.67;;
2650;SDS011;1335;48.180;16.342;2022-10-16T04:35:27;94.27;;;41.17;;
2650;SDS011;1335;48.180;16.342;2022-10-16T04:37:56;143.50;;;45.67;;
2650;SDS011;1335;48.180;16.342;2022-10-16T04:40:24;92.87;;;43.57;;
2650;SDS011;1335;48.180;16.342;2022-10-16T04:42:51;92.60;;;41.87;;
2650;SDS011;1335;48.180;16.342;2022-10-16T04:45:18;88.70;;;43.60;;
2650;SDS011;1335;48.180;16.342;2022-10-16T04:47:47;161.07;;;46.33;;
2650;SDS011;1335;48.180;16.342;2022-10-16T04:50:14;72.97;;;42.10;;
2650;SDS011;1335;48.180;16.342;2022-10-16T04:52:41;116.30;;;44.33;;
2650;SDS011;1335;48.180;16.342;2022-10-16T04:55:08;72.73;;;41.43;;
2650;SDS011;1335;48.180;16.342;2022-10-16T04:57:35;93.43;;;39.10;;
2650;SDS011;1335;48.180;16.342;2022-10-16T05:00:03;59.40;;;37.77;;
2650;SDS011;1335;48.180;16.342;2022-10-16T05:02:30;75.23;;;36.30;;
2650;SDS011;1335;48.180;16.342;2022-10-16T05:04:59;52.77;;;36.57;;
2650;SDS011;1335;48.180;16.342;2022-10-16T05:07:26;61.60;;;38.10;;
2650;SDS011;1335;48.180;16.342;2022-10-16T05:09:53;107.57;;;38.07;;
2650;SDS011;1335;48.180;16.342;2022-10-16T05:12:20;96.73;;;37.37;;
2650;SDS011;1335;48.180;16.342;2022-10-16T05:14:47;54.50;;;33.97;;
2650;SDS011;1335;48.180;16.342;2022-10-16T05:17:14;59.73;;;34.67;;
2650;SDS011;1335;48.180;16.342;2022-10-16T05:19:41;76.43;;;35.57;;
2650;SDS011;1335;48.180;16.342;2022-10-16T05:22:10;64.90;;;35.17;;
2650;SDS011;1335;48.180;16.342;2022-10-16T05:24:37;50.07;;;33.20;;
2650;SDS011;1335;48.180;16.342;2022-10-16T05:27:04;75.83;;;35.03;;
2650;SDS011;1335;48.180;16.342;2022-10-16T05:29:31;99.07;;;33.43;;
2650;SDS011;1335;48.180;16.342;2022-10-16T05:31:58;51.83;;;35.50;;
2650;SDS011;1335;48.180;16.342;2022-10-16T05:34:25;61.77;;;34.23;;
2650;SDS011;1335;48.180;16.342;2022-10-16T05:36:52;76.40;;;35.90;;
2650;SDS011;1335;48.180;16.342;2022-10-16T05:39:21;48.13;;;32.77;;
2650;SDS011;1335;48.180;16.342;2022-10-16T05:41:49;82.73;;;34.27;;
2650;SDS011;1335;48.180;16.342;2022-10-16T05:44:17;40.87;;;32.30;;
2650;SDS011;1335;48.180;16.342;2022-10-16T05:46:45;35.27;;;31.03;;
2650;SDS011;1335;48.180;16.342;2022-10-16T05:49:12;34.60;;;29.90;;
2650;SDS011;1335;48.180;16.342;2022-10-16T05:51:40;32.77;;;29.40;;
2650;SDS011;1335;48.180;16.342;2022-10-16T05:54:07;32.57;;;29.07;;
2650;SDS011;1335;48.180;16.342;2022-10-16T05:56:36;32.17;;;28.80;;
2650;SDS011;1335;48.180;16.342;2022-10-16T05:59:03;34.33;;;30.70;;
2650;SDS011;1335;48.180;16.342;2022-10-16T06:01:30;54.93;;;34.87;;
2650;SDS011;1335;48.180;16.342;2022-10-16T06:03:58;49.50;;;36.97;;
2650;SDS011;1335;48.180;16.342;2022-10-16T06:06:26;60.13;;;39.17;;
2650;SDS011;1335;48.180;16.342;2022-10-16T06:08:55;46.10;;;36.30;;
2650;SDS011;1335;48.180;16.342;2022-10-16T06:11:23;45.97;;;34.70;;
2650;SDS011;1335;48.180;16.342;2022-10-16T06:13:55;56.87;;;36.10;;
2650;SDS011;1335;48.180;16.342;2022-10-16T06:16:23;43.13;;;36.67;;
2650;SDS011;1335;48.180;16.342;2022-10-16T06:18:51;46.27;;;36.07;;
2650;SDS011;1335;48.180;16.342;2022-10-16T06:21:19;40.77;;;34.70;;
2650;SDS011;1335;48.180;16.342;2022-10-16T06:23:49;44.37;;;37.40;;
2650;SDS011;1335;48.180;16.342;2022-10-16T06:26:17;47.40;;;40.70;;
2650;SDS011;1335;48.180;16.342;2022-10-16T06:28:45;47.77;;;41.13;;
2650;SDS011;1335;48.180;16.342;2022-10-16T06:31:14;52.83;;;39.23;;
2650;SDS011;1335;48.180;16.342;2022-10-16T06:33:43;59.57;;;39.20;;
2650;SDS011;1335;48.180;16.342;2022-10-16T06:36:13;55.17;;;39.57;;
2650;SDS011;1335;48.180;16.342;2022-10-16T06:38:43;78.13;;;39.80;;
2650;SDS011;1335;48.180;16.342;2022-10-16T06:41:11;141.63;;;41.57;;
2650;SDS011;1335;48.180;16.342;2022-10-16T06:43:39;67.77;;;41.50;;
2650;SDS011;1335;48.180;16.342;2022-10-16T06:46:08;128.10;;;43.40;;
2650;SDS011;1335;48.180;16.342;2022-10-16T06:48:38;89.67;;;45.30;;
2650;SDS011;1335;48.180;16.342;2022-10-16T06:51:06;110.47;;;46.17;;
2650;SDS011;1335;48.180;16.342;2022-10-16T06:53:37;48.97;;;43.67;;
2650;SDS011;1335;48.180;16.342;2022-10-16T06:56:06;101.17;;;46.47;;
2650;SDS011;1335;48.180;16.342;2022-10-16T06:58:34;102.60;;;47.30;;
2650;SDS011;1335;48.180;16.342;2022-10-16T07:01:01;197.20;;;49.10;;
2650;SDS011;1335;48.180;16.342;2022-10-16T07:03:31;183.40;;;48.73;;
2650;SDS011;1335;48.180;16.342;2022-10-16T07:06:03;107.90;;;44.00;;
2650;SDS011;1335;48.180;16.342;2022-10-16T07:08:33;121.17;;;48.67;;
2650;SDS011;1335;48.180;16.342;2022-10-16T07:11:01;184.27;;;49.70;;
2650;SDS011;1335;48.180;16.342;2022-10-16T07:13:29;88.60;;;49.30;;
2650;SDS011;1335;48.180;16.342;2022-10-16T07:15:56;92.73;;;49.50;;
2650;SDS011;1335;48.180;16.342;2022-10-16T07:18:23;86.13;;;48.17;;
2650;SDS011;1335;48.180;16.342;2022-10-16T07:21:02;67.90;;;46.93;;
2650;SDS011;1335;48.180;16.342;2022-10-16T07:23:43;63.83;;;45.67;;
2650;SDS011;1335;48.180;16.342;2022-10-16T07:26:11;68.60;;;49.17;;
2650;SDS011;1335;48.180;16.342;2022-10-16T07:28:55;99.10;;;48.20;;
2650;SDS011;1335;48.180;16.342;2022-10-16T07:31:38;110.67;;;48.17;;
2650;SDS011;1335;48.180;16.342;2022-10-16T07:34:12;96.10;;;51.50;;
2650;SDS011;1335;48.180;16.342;2022-10-16T07:39:27;114.30;;;50.80;;
2650;SDS011;1335;48.180;16.342;2022-10-16T07:41:54;104.47;;;51.13;;
2650;SDS011;1335;48.180;16.342;2022-10-16T07:44:22;124.73;;;51.23;;
2650;SDS011;1335;48.180;16.342;2022-10-16T07:47:26;160.10;;;52.03;;
2650;SDS011;1335;48.180;16.342;2022-10-16T07:49:54;98.83;;;51.20;;
2650;SDS011;1335;48.180;16.342;2022-10-16T07:52:22;120.10;;;52.83;;
2650;SDS011;1335;48.180;16.342;2022-10-16T07:54:50;166.17;;;52.57;;
2650;SDS011;1335;48.180;16.342;2022-10-16T07:57:19;115.30;;;51.47;;
2650;SDS011;1335;48.180;16.342;2022-10-16T07:59:46;115.90;;;53.60;;
2650;SDS011;1335;48.180;16.342;2022-10-16T08:02:14;104.10;;;53.80;;
2650;SDS011;1335;48.180;16.342;2022-10-16T08:04:41;85.07;;;51.77;;
2650;SDS011;1335;48.180;16.342;2022-10-16T08:07:08;78.83;;;49.00;;
2650;SDS011;1335;48.180;16.342;2022-10-16T08:09:36;108.20;;;49.60;;
2650;SDS011;1335;48.180;16.342;2022-10-16T08:12:05;78.23;;;48.90;;
2650;SDS011;1335;48.180;16.342;2022-10-16T08:14:32;60.73;;;48.23;;
2650;SDS011;1335;48.180;16.342;2022-10-16T08:16:59;70.17;;;46.40;;
2650;SDS011;1335;48.180;16.342;2022-10-16T08:19:29;51.63;;;44.57;;
2650;SDS011;1335;48.180;16.342;2022-10-16T08:21:59;51.67;;;41.87;;
2650;SDS011;1335;48.180;16.342;2022-10-16T08:24:27;51.43;;;43.83;;
2650;SDS011;1335;48.180;16.342;2022-10-16T08:27:01;46.73;;;40.97;;
2650;SDS011;1335;48.180;16.342;2022-10-16T08:29:28;44.67;;;39.60;;
2650;SDS011;1335;48.180;16.342;2022-10-16T08:31:56;44.57;;;40.07;;
2650;SDS011;1335;48.180;16.342;2022-10-16T08:34:24;47.57;;;42.47;;
2650;SDS011;1335;48.180;16.342;2022-10-16T08:36:52;43.60;;;39.00;;
2650;SDS011;1335;48.180;16.342;2022-10-16T08:39:20;44.13;;;39.73;;
2650;SDS011;1335;48.180;16.342;2022-10-16T08:44:57;43.97;;;39.47;;
2650;SDS011;1335;48.180;16.342;2022-10-16T08:47:39;44.53;;;39.93;;
2650;SDS011;1335;48.180;16.342;2022-10-16T08:50:14;42.37;;;38.07;;
2650;SDS011;1335;48.180;16.342;2022-10-16T08:53:03;40.23;;;36.23;;
2650;SDS011;1335;48.180;16.342;2022-10-16T08:55:33;41.37;;;36.87;;
2650;SDS011;1335;48.180;16.342;2022-10-16T08:58:10;41.67;;;37.30;;
2650;SDS011;1335;48.180;16.342;2022-10-16T09:00:40;40.60;;;36.30;;
2650;SDS011;1335;48.180;16.342;2022-10-16T09:03:17;41.73;;;37.77;;
2650;SDS011;1335;48.180;16.342;2022-10-16T09:06:07;38.93;;;35.23;;
2650;SDS011;1335;48.180;16.342;2022-10-16T09:08:46;36.83;;;33.27;;
2650;SDS011;1335;48.180;16.342;2022-10-16T09:11:30;38.47;;;34.67;;
2650;SDS011;1335;48.180;16.342;2022-10-16T09:14:13;38.40;;;34.73;;
2650;SDS011;1335;48.180;16.342;2022-10-16T09:17:03;40.67;;;36.60;;
2650;SDS011;1335;48.180;16.342;2022-10-16T09:19:41;41.57;;;37.17;;
2650;SDS011;1335;48.180;16.342;2022-10-16T09:22:13;37.90;;;34.07;;
2650;SDS011;1335;48.180;16.342;2022-10-16T09:24:43;38.60;;;34.90;;
2650;SDS011;1335;48.180;16.342;2022-10-16T09:27:10;38.57;;;34.53;;
2650;SDS011;1335;48.180;16.342;2022-10-16T09:29:43;39.17;;;35.33;;
2650;SDS011;1335;48.180;16.342;2022-10-16T09:32:11;41.37;;;37.10;;
2650;SDS011;1335;48.180;16.342;2022-10-16T09:34:42;43.23;;;38.83;;
2650;SDS011;1335;48.180;16.342;2022-10-16T09:37:13;41.80;;;37.60;;
2650;SDS011;1335;48.180;16.342;2022-10-16T09:39:44;39.77;;;35.80;;
2650;SDS011;1335;48.180;16.342;2022-10-16T09:42:14;40.90;;;36.37;;
2650;SDS011;1335;48.180;16.342;2022-10-16T09:44:46;41.10;;;37.00;;
2650;SDS011;1335;48.180;16.342;2022-10-16T09:47:15;42.37;;;38.10;;
2650;SDS011;1335;48.180;16.342;2022-10-16T09:49:52;40.93;;;36.73;;
2650;SDS011;1335;48.180;16.342;2022-10-16T09:52:20;42.93;;;38.37;;
2650;SDS011;1335;48.180;16.342;2022-10-16T09:54:49;42.43;;;38.07;;
2650;SDS011;1335;48.180;16.342;2022-10-16T09:57:18;40.37;;;36.27;;
2650;SDS011;1335;48.180;16.342;2022-10-16T09:59:47;40.90;;;36.90;;
2650;SDS011;1335;48.180;16.342;2022-10-16T10:02:16;42.83;;;38.43;;
2650;SDS011;1335;48.180;16.342;2022-10-16T10:04:47;42.67;;;38.27;;
2650;SDS011;1335;48.180;16.342;2022-10-16T10:07:21;43.50;;;38.93;;
2650;SDS011;1335;48.180;16.342;2022-10-16T10:09:52;41.23;;;36.83;;
2650;SDS011;1335;48.180;16.342;2022-10-16T10:12:23;40.97;;;36.87;;
2650;SDS011;1335;48.180;16.342;2022-10-16T10:14:53;42.07;;;37.93;;
2650;SDS011;1335;48.180;16.342;2022-10-16T10:17:22;41.00;;;36.67;;
2650;SDS011;1335;48.180;16.342;2022-10-16T10:19:51;40.33;;;36.17;;
2650;SDS011;1335;48.180;16.342;2022-10-16T10:22:24;36.93;;;33.30;;
2650;SDS011;1335;48.180;16.342;2022-10-16T10:24:59;39.33;;;35.43;;
2650;SDS011;1335;48.180;16.342;2022-10-16T10:27:39;38.40;;;34.63;;
2650;SDS011;1335;48.180;16.342;2022-10-16T10:30:19;37.50;;;33.93;;
2650;SDS011;1335;48.180;16.342;2022-10-16T10:32:53;39.13;;;35.37;;
2650;SDS011;1335;48.180;16.342;2022-10-16T10:35:36;37.73;;;34.13;;
2650;SDS011;1335;48.180;16.342;2022-10-16T10:38:16;40.50;;;36.37;;
2650;SDS011;1335;48.180;16.342;2022-10-16T10:40:51;37.40;;;33.70;;
2650;SDS011;1335;48.180;16.342;2022-10-16T10:43:26;36.53;;;33.03;;
2650;SDS011;1335;48.180;16.342;2022-10-16T10:46:06;38.03;;;34.07;;
2650;SDS011;1335;48.180;16.342;2022-10-16T10:48:46;40.40;;;36.10;;
2650;SDS011;1335;48.180;16.342;2022-10-16T10:51:25;40.73;;;36.67;;
2650;SDS011;1335;48.180;16.342;2022-10-16T10:54:01;37.20;;;33.50;;
2650;SDS011;1335;48.180;16.342;2022-10-16T10:56:48;37.90;;;34.03;;
2650;SDS011;1335;48.180;16.342;2022-10-16T10:59:52;37.00;;;33.40;;
2650;SDS011;1335;48.180;16.342;2022-10-16T11:02:31;36.80;;;33.10;;
2650;SDS011;1335;48.180;16.342;2022-10-16T11:08:11;38.10;;;34.37;;
2650;SDS011;1335;48.180;16.342;2022-10-16T11:10:45;39.33;;;35.47;;
2650;SDS011;1335;48.180;16.342;2022-10-16T11:13:23;39.80;;;35.60;;
2650;SDS011;1335;48.180;16.342;2022-10-16T11:15:56;41.57;;;37.17;;
2650;SDS011;1335;48.180;16.342;2022-10-16T11:18:29;40.00;;;36.00;;
2650;SDS011;1335;48.180;16.342;2022-10-16T11:21:07;40.23;;;36.13;;
2650;SDS011;1335;48.180;16.342;2022-10-16T11:23:40;37.53;;;33.83;;
2650;SDS011;1335;48.180;16.342;2022-10-16T11:26:13;38.70;;;34.83;;
2650;SDS011;1335;48.180;16.342;2022-10-16T11:28:45;38.30;;;34.37;;
2650;SDS011;1335;48.180;16.342;2022-10-16T11:31:16;41.50;;;37.60;;
2650;SDS011;1335;48.180;16.342;2022-10-16T11:33:51;39.43;;;35.40;;
2650;SDS011;1335;48.180;16.342;2022-10-16T11:36:26;39.17;;;35.27;;
2650;SDS011;1335;48.180;16.342;2022-10-16T11:39:00;36.93;;;33.40;;
2650;SDS011;1335;48.180;16.342;2022-10-16T11:41:37;37.30;;;33.70;;
2650;SDS011;1335;48.180;16.342;2022-10-16T11:47:15;36.20;;;32.80;;
2650;SDS011;1335;48.180;16.342;2022-10-16T11:49:58;38.87;;;35.23;;
2650;SDS011;1335;48.180;16.342;2022-10-16T11:52:33;37.40;;;33.93;;
2650;SDS011;1335;48.180;16.342;2022-10-16T11:55:13;36.73;;;33.43;;
2650;SDS011;1335;48.180;16.342;2022-10-16T11:57:47;36.33;;;32.80;;
2650;SDS011;1335;48.180;16.342;2022-10-16T12:00:20;35.37;;;31.90;;
2650;SDS011;1335;48.180;16.342;2022-10-16T12:02:54;36.67;;;33.20;;
2650;SDS011;1335;48.180;16.342;2022-10-16T12:05:35;35.27;;;32.10;;
2650;SDS011;1335;48.180;16.342;2022-10-16T12:08:16;34.97;;;31.53;;
2650;SDS011;1335;48.180;16.342;2022-10-16T12:10:44;34.27;;;31.07;;
2650;SDS011;1335;48.180;16.342;2022-10-16T12:13:29;35.23;;;31.73;;
2650;SDS011;1335;48.180;16.342;2022-10-16T12:16:05;34.47;;;31.27;;
2650;SDS011;1335;48.180;16.342;2022-10-16T12:18:49;31.90;;;29.10;;
2650;SDS011;1335;48.180;16.342;2022-10-16T12:24:27;33.80;;;30.83;;
2650;SDS011;1335;48.180;16.342;2022-10-16T12:27:06;34.00;;;31.00;;
2650;SDS011;1335;48.180;16.342;2022-10-16T12:29:53;31.50;;;28.60;;
2650;SDS011;1335;48.180;16.342;2022-10-16T12:32:26;32.93;;;30.13;;
2650;SDS011;1335;48.180;16.342;2022-10-16T12:35:04;34.87;;;31.67;;
2650;SDS011;1335;48.180;16.342;2022-10-16T12:38:14;33.60;;;30.60;;
2650;SDS011;1335;48.180;16.342;2022-10-16T12:40:45;34.33;;;31.30;;
2650;SDS011;1335;48.180;16.342;2022-10-16T12:46:53;33.80;;;30.83;;
2650;SDS011;1335;48.180;16.342;2022-10-16T12:49:48;33.03;;;30.03;;
2650;SDS011;1335;48.180;16.342;2022-10-16T13:11:54;35.77;;;32.77;;
2650;SDS011;1335;48.180;16.342;2022-10-16T13:14:43;33.50;;;30.40;;
2650;SDS011;1335;48.180;16.342;2022-10-16T13:17:40;36.37;;;33.20;;
2650;SDS011;1335;48.180;16.342;2022-10-16T13:20:16;37.03;;;33.87;;
2650;SDS011;1335;48.180;16.342;2022-10-16T13:22:55;34.00;;;31.07;;
2650;SDS011;1335;48.180;16.342;2022-10-16T13:25:34;36.53;;;33.33;;
2650;SDS011;1335;48.180;16.342;2022-10-16T13:28:16;38.93;;;35.20;;
2650;SDS011;1335;48.180;16.342;2022-10-16T13:30:51;38.83;;;35.33;;
2650;SDS011;1335;48.180;16.342;2022-10-16T13:33:20;37.53;;;34.00;;
2650;SDS011;1335;48.180;16.342;2022-10-16T13:35:57;38.00;;;34.60;;
2650;SDS011;1335;48.180;16.342;2022-10-16T13:38:32;38.83;;;35.23;;
2650;SDS011;1335;48.180;16.342;2022-10-16T13:41:03;40.27;;;36.57;;
2650;SDS011;1335;48.180;16.342;2022-10-16T13:43:42;38.07;;;34.77;;
2650;SDS011;1335;48.180;16.342;2022-10-16T13:46:15;37.90;;;34.37;;
2650;SDS011;1335;48.180;16.342;2022-10-16T13:48:44;40.50;;;36.80;;
2650;SDS011;1335;48.180;16.342;2022-10-16T13:51:23;39.83;;;35.70;;
2650;SDS011;1335;48.180;16.342;2022-10-16T13:53:52;39.73;;;36.00;;
2650;SDS011;1335;48.180;16.342;2022-10-16T13:56:28;40.67;;;36.90;;
2650;SDS011;1335;48.180;16.342;2022-10-16T14:11:48;40.70;;;36.60;;
2650;SDS011;1335;48.180;16.342;2022-10-16T14:14:32;40.80;;;37.20;;
2650;SDS011;1335;48.180;16.342;2022-10-16T14:17:13;38.53;;;34.93;;
2650;SDS011;1335;48.180;16.342;2022-10-16T14:19:46;38.50;;;35.00;;
2650;SDS011;1335;48.180;16.342;2022-10-16T14:22:29;36.80;;;33.17;;
2650;SDS011;1335;48.180;16.342;2022-10-16T14:25:26;36.93;;;33.60;;
2650;SDS011;1335;48.180;16.342;2022-10-16T14:28:16;37.63;;;34.13;;
2650;SDS011;1335;48.180;16.342;2022-10-16T14:30:58;34.70;;;31.20;;
2650;SDS011;1335;48.180;16.342;2022-10-16T14:33:41;34.93;;;31.63;;
2650;SDS011;1335;48.180;16.342;2022-10-16T14:36:11;33.67;;;30.33;;
2650;SDS011;1335;48.180;16.342;2022-10-16T14:38:43;36.20;;;33.00;;
2650;SDS011;1335;48.180;16.342;2022-10-16T14:41:27;35.43;;;31.70;;
2650;SDS011;1335;48.180;16.342;2022-10-16T14:44:04;36.23;;;32.83;;
2650;SDS011;1335;48.180;16.342;2022-10-16T14:46:33;32.03;;;28.90;;
2650;SDS011;1335;48.180;16.342;2022-10-16T14:49:13;33.50;;;29.57;;
2650;SDS011;1335;48.180;16.342;2022-10-16T14:52:21;34.87;;;31.33;;
2650;SDS011;1335;48.180;16.342;2022-10-16T14:54:51;31.70;;;28.80;;
2650;SDS011;1335;48.180;16.342;2022-10-16T14:57:24;31.93;;;29.00;;
2650;SDS011;1335;48.180;16.342;2022-10-16T15:00:01;31.07;;;28.27;;
2650;SDS011;1335;48.180;16.342;2022-10-16T15:02:31;32.77;;;29.87;;
2650;SDS011;1335;48.180;16.342;2022-10-16T15:05:02;33.93;;;30.83;;
2650;SDS011;1335;48.180;16.342;2022-10-16T15:07:42;31.37;;;28.57;;
2650;SDS011;1335;48.180;16.342;2022-10-16T15:10:20;29.97;;;27.17;;
2650;SDS011;1335;48.180;16.342;2022-10-16T15:12:50;30.93;;;28.23;;
2650;SDS011;1335;48.180;16.342;2022-10-16T15:15:26;31.07;;;27.80;;
2650;SDS011;1335;48.180;16.342;2022-10-16T15:18:05;31.97;;;28.53;;
2650;SDS011;1335;48.180;16.342;2022-10-16T15:20:51;37.23;;;33.10;;
2650;SDS011;1335;48.180;16.342;2022-10-16T15:23:27;39.67;;;35.83;;
2650;SDS011;1335;48.180;16.342;2022-10-16T15:26:10;41.53;;;37.30;;
2650;SDS011;1335;48.180;16.342;2022-10-16T15:29:22;36.80;;;33.33;;
2650;SDS011;1335;48.180;16.342;2022-10-16T15:32:18;36.33;;;32.83;;
2650;SDS011;1335;48.180;16.342;2022-10-16T15:34:48;37.80;;;33.90;;
2650;SDS011;1335;48.180;16.342;2022-10-16T15:37:18;33.67;;;30.47;;
2650;SDS011;1335;48.180;16.342;2022-10-16T15:40:05;34.97;;;31.70;;
2650;SDS011;1335;48.180;16.342;2022-10-16T15:43:27;34.63;;;31.30;;
2650;SDS011;1335;48.180;16.342;2022-10-16T15:45:59;33.07;;;29.57;;
2650;SDS011;1335;48.180;16.342;2022-10-16T15:51:54;34.63;;;31.23;;
2650;SDS011;1335;48.180;16.342;2022-10-16T15:54:22;36.03;;;31.30;;
2650;SDS011;1335;48.180;16.342;2022-10-16T15:56:50;35.07;;;30.63;;
2650;SDS011;1335;48.180;16.342;2022-10-16T15:59:17;31.97;;;28.87;;